This is the latest recevied weather packets stored in our database for station/object JL1LCW-13. If no packets are shown the sender has not sent any weather packets the latest 1 day(s).
| Time | Temp. | Humidity | Pressure | Rain* | Wind** | Luminosity | Snow |
|---|---|---|---|---|---|---|---|
| 1778096218 | 17.22° C | 99% | 1017 hPa | 0.51 mm | - | - | - |
| 1778093519 | 17.22° C | 99% | 1017 hPa | 0 mm | - | - | - |
| 1778089919 | 17.22° C | 99% | 1017 hPa | 0 mm | - | - | - |
| 1778089019 | 17.22° C | 99% | 1017 hPa | 0 mm | - | - | - |
| 1778086318 | 17.22° C | 99% | 1017 hPa | 0 mm | - | - | - |
| 1778079119 | 17.22° C | 99% | 1019 hPa | 0.25 mm | - | - | - |
| 1778075518 | 17.22° C | 99% | 1019 hPa | 0 mm | - | - | - |
| 1778071018 | 17.22° C | 99% | 1020 hPa | 0 mm | - | - | - |
| 1778067418 | 17.78° C | 99% | 1020 hPa | 0 mm | - | - | - |
| 1778064718 | 18.89° C | 97% | 1019 hPa | 0 mm | - | - | - |
| 1778060218 | 18.89° C | 99% | 1019 hPa | 0 mm | - | - | - |
| 1778057519 | 20° C | 99% | 1019 hPa | 0 mm | - | - | - |
| 1778053019 | 21.11° C | 91% | 1020 hPa | 0 mm | - | - | - |
| 1778050318 | 21.11° C | 86% | 1020 hPa | 0 mm | - | - | - |
| 1778046718 | 21.11° C | 87% | 1020 hPa | 0 mm | - | - | - |
| 1778045817 | 21.11° C | 82% | 1021 hPa | 0 mm | - | - | - |
| 1778043118 | 22.22° C | 81% | 1021 hPa | 0 mm | - | - | - |
| 1778039517 | 21.11° C | 86% | 1021 hPa | 0 mm | - | - | - |
| 1778038619 | 21.11° C | 87% | 1022 hPa | 0 mm | - | - | - |
| 1778035918 | 21.11° C | 86% | 1022 hPa | 0 mm | - | - | - |
| 1778035017 | 22.22° C | 83% | 1022 hPa | 0 mm | - | - | - |
| 1778032318 | 22.22° C | 81% | 1023 hPa | 0 mm | - | - | - |
| 1778031418 | 22.78° C | 80% | 1023 hPa | 0 mm | - | - | - |
| 1778028718 | 21.11° C | 87% | 1024 hPa | 0 mm | - | - | - |
| 1778021519 | 17.78° C | 98% | 1024 hPa | 0 mm | - | - | - |
* Rain latest hour (hover to see other rain measurements)
** Current wind speed in m/s (hover to see current wind gust speed)